Time;durP1;ratioP1;P1;durP2;ratioP2;P2;SDS_P1;SDS_P2;PMS_P1;PMS_P2;Temp;Humidity;BMP_temperature;BMP_pressure;BME280_temperature;BME280_humidity;BME280_pressure;Samples;Min_cycle;Max_cycle;Signal;HPM_P1;HPM_P2
2022/09/09 00:02:23;;;;;;;8.50;7.70;;;;;;;14.32;100.00;100726.16;4987744;28;20552;-77
2022/09/09 00:05:14;;;;;;;9.02;8.38;;;;;;;14.26;100.00;100724.22;4996089;28;20035;-77
2022/09/09 00:07:45;;;;;;;8.85;7.72;;;;;;;14.19;100.00;100733.91;4987535;28;20076;-76
2022/09/09 00:10:29;;;;;;;8.50;7.90;;;;;;;14.19;100.00;100731.25;4988467;28;20523;-76
2022/09/09 00:13:01;;;;;;;8.85;8.00;;;;;;;14.16;100.00;100723.66;4990586;28;20045;-76
2022/09/09 00:15:36;;;;;;;9.07;8.48;;;;;;;14.09;100.00;100712.06;4992512;28;20487;-76
2022/09/09 00:18:14;;;;;;;10.00;9.07;;;;;;;13.99;100.00;100707.81;4977402;28;20046;-76
2022/09/09 00:20:57;;;;;;;8.40;7.70;;;;;;;14.01;100.00;100712.97;5083202;28;20027;-76
2022/09/09 00:23:25;;;;;;;9.55;8.43;;;;;;;14.06;100.00;100713.25;5082777;28;20027;-76
2022/09/09 00:26:04;;;;;;;8.05;7.28;;;;;;;13.97;100.00;100715.13;5078536;28;20038;-76
2022/09/09 00:28:34;;;;;;;10.18;8.25;;;;;;;13.93;100.00;100719.13;5079421;28;20115;-76
2022/09/09 00:31:12;;;;;;;8.40;7.68;;;;;;;13.83;100.00;100713.22;5077292;28;20020;-76
2022/09/09 00:33:38;;;;;;;11.38;7.60;;;;;;;13.80;100.00;100713.56;5074463;28;20097;-76
2022/09/09 00:36:13;;;;;;;8.02;7.28;;;;;;;13.63;100.00;100693.44;5084623;28;20040;-76
2022/09/09 00:39:05;;;;;;;8.05;7.35;;;;;;;13.70;100.00;100705.03;5081850;28;20032;-76
2022/09/09 00:42:09;;;;;;;8.73;8.02;;;;;;;13.66;100.00;100706.38;5072033;28;20479;-77
2022/09/09 00:44:37;;;;;;;9.35;8.45;;;;;;;13.66;100.00;100701.88;5075321;28;20036;-77
2022/09/09 00:47:02;;;;;;;10.05;9.27;;;;;;;13.65;100.00;100696.75;5077188;28;20388;-76
2022/09/09 00:49:27;;;;;;;17.90;9.63;;;;;;;13.65;100.00;100704.69;5084792;28;20028;-76
2022/09/09 00:52:18;;;;;;;9.63;8.70;;;;;;;13.60;100.00;100722.97;5073352;28;20024;-76
2022/09/09 00:54:53;;;;;;;10.07;8.43;;;;;;;13.54;100.00;100709.41;5070131;28;20036;-76
2022/09/09 00:57:33;;;;;;;9.45;7.50;;;;;;;13.36;100.00;100677.81;5079988;28;20029;-76
2022/09/09 01:00:18;;;;;;;9.35;8.43;;;;;;;13.48;100.00;100707.44;5080823;28;20021;-76
2022/09/09 01:03:24;;;;;;;8.00;7.32;;;;;;;13.50;100.00;100702.78;5076284;28;20021;-76
2022/09/09 01:06:13;;;;;;;9.25;8.48;;;;;;;13.48;100.00;100702.13;5058900;28;20495;-76
2022/09/09 01:08:50;;;;;;;9.70;8.68;;;;;;;13.49;100.00;100703.78;5078323;28;20473;-76
2022/09/09 01:11:22;;;;;;;8.18;7.57;;;;;;;13.48;100.00;100699.50;5080827;28;20024;-76
2022/09/09 01:13:58;;;;;;;8.63;7.95;;;;;;;13.41;100.00;100679.13;5075941;28;20115;-76
2022/09/09 01:16:24;;;;;;;8.73;8.10;;;;;;;13.42;100.00;100673.66;5076720;28;20028;-77
2022/09/09 01:18:52;;;;;;;8.75;8.15;;;;;;;13.49;100.00;100693.16;5062129;28;20039;-76
2022/09/09 01:21:38;;;;;;;10.82;9.57;;;;;;;13.45;100.00;100683.91;5078699;28;20023;-76
2022/09/09 01:24:26;;;;;;;10.70;9.65;;;;;;;13.37;100.00;100691.91;5083477;28;20035;-76
2022/09/09 01:26:57;;;;;;;8.88;8.15;;;;;;;13.32;100.00;100686.28;5077352;28;20027;-76
2022/09/09 01:29:23;;;;;;;8.85;8.10;;;;;;;13.19;100.00;100668.25;5072556;28;20020;-76
2022/09/09 01:31:59;;;;;;;9.45;8.65;;;;;;;13.26;100.00;100684.28;5082061;28;20089;-76
2022/09/09 01:34:38;;;;;;;8.73;8.02;;;;;;;13.19;100.00;100676.19;5078516;28;20067;-76
2022/09/09 01:37:11;;;;;;;11.47;8.57;;;;;;;13.11;100.00;100655.88;5074202;28;20105;-76
2022/09/09 01:39:40;;;;;;;8.43;7.43;;;;;;;13.15;100.00;100678.38;5082463;28;20024;-76
2022/09/09 01:42:08;;;;;;;10.25;9.20;;;;;;;13.05;100.00;100669.78;5078838;28;20104;-76
2022/09/09 01:44:35;;;;;;;9.10;8.23;;;;;;;13.08;100.00;100680.03;5078296;28;20021;-76
2022/09/09 01:47:01;;;;;;;8.68;7.90;;;;;;;13.05;100.00;100683.03;5079931;28;20063;-76
2022/09/09 01:49:27;;;;;;;10.45;7.72;;;;;;;13.09;100.00;100676.41;5077878;28;20024;-76
2022/09/09 01:51:54;;;;;;;8.50;7.82;;;;;;;13.06;100.00;100676.72;5079036;28;20033;-75
2022/09/09 01:54:23;;;;;;;7.93;7.32;;;;;;;12.96;100.00;100657.56;5077905;28;20024;-76
2022/09/09 01:57:19;;;;;;;8.57;7.88;;;;;;;13.01;100.00;100667.66;5075949;28;20025;-77
2022/09/09 02:00:06;;;;;;;8.38;7.45;;;;;;;12.96;100.00;100673.47;5079950;28;20021;-77
2022/09/09 02:02:46;;;;;;;9.73;8.90;;;;;;;12.91;100.00;100673.13;5079739;28;20032;-76
2022/09/09 02:05:22;;;;;;;7.90;7.20;;;;;;;12.87;100.00;100674.47;5075246;28;20392;-77
2022/09/09 02:07:49;;;;;;;9.57;8.63;;;;;;;12.89;100.00;100677.78;5079212;28;20044;-77
2022/09/09 02:10:27;;;;;;;11.55;7.25;;;;;;;12.85;100.00;100668.53;5078116;28;20025;-77
2022/09/09 02:13:10;;;;;;;10.57;8.75;;;;;;;12.85;100.00;100677.31;5075149;28;20028;-76
2022/09/09 02:15:42;;;;;;;9.35;8.30;;;;;;;12.81;100.00;100675.97;5073597;28;20115;-76
2022/09/09 02:18:12;;;;;;;9.30;8.48;;;;;;;12.79;100.00;100679.81;5083302;28;20500;-77
2022/09/09 02:20:38;;;;;;;9.25;8.45;;;;;;;12.73;100.00;100678.63;5077599;28;20023;-75
2022/09/09 02:23:05;;;;;;;8.48;7.70;;;;;;;12.81;100.00;100688.41;5076319;28;20035;-75
2022/09/09 02:25:30;;;;;;;9.25;7.90;;;;;;;12.85;100.00;100687.91;5081770;28;20446;-77
2022/09/09 02:28:00;;;;;;;9.25;8.48;;;;;;;12.84;100.00;100696.00;5073013;28;20158;-77
2022/09/09 02:30:29;;;;;;;9.63;8.75;;;;;;;12.83;100.00;100684.59;5083550;28;20020;-77
2022/09/09 02:32:58;;;;;;;9.80;9.00;;;;;;;12.87;100.00;100687.72;5075985;28;20076;-76
2022/09/09 02:35:26;;;;;;;8.95;8.32;;;;;;;12.76;100.00;100668.56;5074229;28;20036;-77
2022/09/09 02:37:56;;;;;;;8.40;7.72;;;;;;;12.67;100.00;100658.97;5076694;28;20039;-77
2022/09/09 02:40:21;;;;;;;10.15;9.35;;;;;;;12.71;100.00;100670.03;5078726;28;20533;-77
2022/09/09 02:42:48;;;;;;;9.57;8.95;;;;;;;12.75;100.00;100677.47;5043961;28;20032;-77
2022/09/09 02:45:20;;;;;;;8.82;8.07;;;;;;;12.78;100.00;100681.59;5078135;28;20484;-77
2022/09/09 02:48:13;;;;;;;10.73;9.63;;;;;;;12.80;100.00;100679.63;5075665;28;20024;-76
2022/09/09 02:51:15;;;;;;;9.93;9.02;;;;;;;12.86;100.00;100678.94;5074397;28;20092;-76
2022/09/09 02:54:09;;;;;;;9.13;8.23;;;;;;;12.91;100.00;100676.63;5001633;28;20042;-77
2022/09/09 02:56:41;;;;;;;8.88;8.18;;;;;;;12.88;100.00;100670.84;4993809;28;20034;-78
2022/09/09 02:59:07;;;;;;;8.85;8.05;;;;;;;12.86;100.00;100664.88;4998856;28;20100;-77
2022/09/09 03:01:32;;;;;;;8.48;7.82;;;;;;;12.99;100.00;100683.72;4981272;28;20032;-77
2022/09/09 03:03:57;;;;;;;9.80;8.80;;;;;;;13.00;100.00;100679.25;4993020;28;20061;-77
2022/09/09 03:06:23;;;;;;;9.52;8.85;;;;;;;12.96;100.00;100681.41;4992134;28;20125;-77
2022/09/09 03:08:49;;;;;;;10.32;9.45;;;;;;;12.93;100.00;100679.94;4995360;28;20057;-77
2022/09/09 03:11:16;;;;;;;9.60;8.80;;;;;;;12.93;100.00;100674.63;4996335;28;20133;-77
2022/09/09 03:13:41;;;;;;;10.10;9.27;;;;;;;12.83;100.00;100657.28;4996162;28;20045;-77
2022/09/09 03:16:06;;;;;;;9.48;8.75;;;;;;;12.90;100.00;100663.56;4965134;28;20499;-77
2022/09/09 03:18:32;;;;;;;9.77;8.95;;;;;;;12.93;100.00;100664.03;4959049;28;20033;-77
2022/09/09 03:20:57;;;;;;;10.65;9.20;;;;;;;12.96;100.00;100670.81;4964776;28;20498;-77
2022/09/09 03:23:24;;;;;;;9.15;8.40;;;;;;;12.96;100.00;100662.88;4978137;28;20512;-77
2022/09/09 03:25:50;;;;;;;12.75;11.60;;;;;;;13.02;100.00;100666.66;4996870;28;20392;-76
2022/09/09 03:28:15;;;;;;;11.68;10.63;;;;;;;13.07;100.00;100674.94;4964320;28;20056;-77
2022/09/09 03:30:41;;;;;;;7.78;7.20;;;;;;;13.09;100.00;100668.47;5060404;28;20052;-77
2022/09/09 03:33:06;;;;;;;9.93;9.23;;;;;;;13.10;100.00;100658.69;5076273;28;20525;-77
2022/09/09 03:35:31;;;;;;;8.38;7.78;;;;;;;13.17;100.00;100660.50;5051645;28;20036;-77
2022/09/09 03:37:57;;;;;;;9.20;8.55;;;;;;;13.32;100.00;100675.69;5075642;28;20032;-77
2022/09/09 03:40:22;;;;;;;9.35;8.45;;;;;;;13.35;100.00;100672.72;5062724;28;20533;-77
2022/09/09 03:42:48;;;;;;;11.20;10.40;;;;;;;13.26;100.00;100660.44;5077214;28;20439;-78
2022/09/09 03:45:14;;;;;;;11.13;10.32;;;;;;;13.36;100.00;100677.00;5053862;28;20395;-77
2022/09/09 03:47:39;;;;;;;15.10;10.70;;;;;;;13.35;100.00;100678.00;5078986;28;20028;-77
2022/09/09 03:50:08;;;;;;;10.25;9.45;;;;;;;13.38;100.00;100680.31;5069742;28;20025;-77
2022/09/09 03:52:38;;;;;;;11.43;10.73;;;;;;;13.38;100.00;100682.94;5070756;28;20051;-78
2022/09/09 03:55:05;;;;;;;11.50;10.50;;;;;;;13.24;100.00;100655.31;5074665;28;20469;-78
2022/09/09 03:57:30;;;;;;;17.00;8.93;;;;;;;13.41;100.00;100677.28;5075847;28;20028;-77
2022/09/09 03:59:56;;;;;;;13.70;9.75;;;;;;;13.42;100.00;100678.97;5072057;28;20029;-76
2022/09/09 04:02:21;;;;;;;9.52;8.93;;;;;;;13.45;100.00;100673.31;5073981;28;20055;-76
2022/09/09 04:04:47;;;;;;;10.73;9.90;;;;;;;13.44;100.00;100682.28;5074296;28;20645;-77
2022/09/09 04:07:12;;;;;;;12.82;9.02;;;;;;;13.39;100.00;100671.34;5077081;28;20127;-77
2022/09/09 04:09:38;;;;;;;8.50;7.90;;;;;;;13.47;100.00;100681.91;5071608;28;20024;-77
2022/09/09 04:12:04;;;;;;;8.57;8.00;;;;;;;13.50;100.00;100681.59;5071191;28;20033;-77
2022/09/09 04:14:29;;;;;;;9.27;8.68;;;;;;;13.53;100.00;100678.56;5075252;28;20100;-77
2022/09/09 04:16:57;;;;;;;9.25;8.68;;;;;;;13.60;100.00;100677.88;5077274;28;20028;-77
2022/09/09 04:19:22;;;;;;;10.98;10.27;;;;;;;13.55;100.00;100663.31;5075531;28;20086;-77
2022/09/09 04:21:51;;;;;;;12.40;11.35;;;;;;;13.62;100.00;100667.94;5078200;28;20025;-77
2022/09/09 04:24:17;;;;;;;13.73;12.27;;;;;;;13.64;100.00;100668.59;5069174;28;20070;-77
2022/09/09 04:26:42;;;;;;;12.52;11.70;;;;;;;13.67;100.00;100670.88;5073727;28;20036;-77
2022/09/09 04:29:07;;;;;;;10.55;9.85;;;;;;;13.71;100.00;100673.00;5074525;28;20122;-78
2022/09/09 04:31:33;;;;;;;11.77;11.07;;;;;;;13.73;100.00;100686.09;5069632;28;20025;-77
2022/09/09 04:34:04;;;;;;;12.18;11.38;;;;;;;13.74;100.00;100691.22;5074833;28;20049;-77
2022/09/09 04:36:30;;;;;;;;;;;;;;;13.78;100.00;100689.03;5074039;28;20060;-77
2022/09/09 04:38:55;;;;;;;12.38;11.73;;;;;;;13.82;100.00;100695.66;5073618;28;20409;-77
2022/09/09 04:41:20;;;;;;;11.95;11.27;;;;;;;13.74;100.00;100682.44;5070940;28;20044;-77
2022/09/09 04:43:46;;;;;;;12.05;11.25;;;;;;;13.63;100.00;100667.78;5069222;28;20587;-77
2022/09/09 04:46:11;;;;;;;10.52;9.73;;;;;;;13.89;100.00;100706.38;5071501;28;20773;-77
2022/09/09 04:48:37;;;;;;;12.57;11.65;;;;;;;13.88;100.00;100694.97;5072698;28;20035;-77
2022/09/09 04:51:08;;;;;;;10.82;10.23;;;;;;;13.90;100.00;100697.44;5075882;28;20029;-77
2022/09/09 04:53:34;;;;;;;11.55;10.73;;;;;;;13.93;100.00;100697.91;5076161;28;20447;-77
2022/09/09 04:56:09;;;;;;;11.27;10.57;;;;;;;13.95;100.00;100695.91;5067343;28;20081;-77
2022/09/09 04:58:36;;;;;;;12.07;11.45;;;;;;;13.97;100.00;100690.44;5060294;28;20404;-77
2022/09/09 05:01:23;;;;;;;11.13;10.52;;;;;;;14.02;100.00;100695.19;5076004;28;20491;-77
2022/09/09 05:03:49;;;;;;;10.75;10.00;;;;;;;13.96;100.00;100686.94;5076792;28;20082;-77
2022/09/09 05:06:17;;;;;;;10.30;9.50;;;;;;;13.94;100.00;100682.81;5075797;28;20039;-77
2022/09/09 05:08:43;;;;;;;9.20;8.55;;;;;;;13.99;100.00;100697.19;5075854;28;20536;-77
2022/09/09 05:11:24;;;;;;;9.75;9.25;;;;;;;13.98;100.00;100689.44;5075047;28;20021;-77
2022/09/09 05:13:50;;;;;;;10.80;9.73;;;;;;;13.96;100.00;100700.22;5077075;28;20500;-76
2022/09/09 05:16:16;;;;;;;10.50;9.77;;;;;;;13.90;100.00;100685.00;5075274;28;20038;-77
2022/09/09 05:18:42;;;;;;;10.82;10.32;;;;;;;13.91;100.00;100686.63;5069503;28;20036;-78
2022/09/09 05:21:09;;;;;;;12.90;12.07;;;;;;;13.89;100.00;100691.31;5056977;28;20027;-77
2022/09/09 05:23:35;;;;;;;13.25;12.43;;;;;;;13.95;100.00;100687.13;5077128;28;20039;-77
2022/09/09 05:26:01;;;;;;;14.20;13.52;;;;;;;13.91;100.00;100689.28;5076178;28;20103;-77
2022/09/09 05:28:28;;;;;;;17.30;16.33;;;;;;;13.86;100.00;100694.31;5072916;28;20027;-76
2022/09/09 05:31:03;;;;;;;15.68;14.98;;;;;;;13.84;100.00;100698.97;5076502;28;20076;-77
2022/09/09 05:33:29;;;;;;;13.60;13.00;;;;;;;13.76;100.00;100704.31;5074802;28;20017;-77
2022/09/09 05:35:56;;;;;;;14.52;13.80;;;;;;;13.76;100.00;100704.31;5074621;28;20039;-77
2022/09/09 05:38:24;;;;;;;15.52;14.38;;;;;;;13.77;100.00;100703.31;5076752;28;20035;-76
2022/09/09 05:40:49;;;;;;;12.63;11.73;;;;;;;13.56;100.00;100677.41;5072518;28;20032;-77
2022/09/09 05:43:15;;;;;;;19.85;18.90;;;;;;;13.70;100.00;100708.50;5073551;28;20081;-76
2022/09/09 05:45:40;;;;;;;18.58;17.73;;;;;;;13.66;100.00;100704.53;5076469;28;20040;-76
2022/09/09 05:48:07;;;;;;;17.92;16.92;;;;;;;13.70;100.00;100710.31;5071936;28;20059;-77
2022/09/09 05:50:32;;;;;;;20.25;19.25;;;;;;;13.75;100.00;100718.56;5076064;28;20046;-76
2022/09/09 05:52:57;;;;;;;24.30;23.10;;;;;;;13.73;100.00;100712.63;5058585;28;20032;-77
2022/09/09 05:55:23;;;;;;;20.98;20.00;;;;;;;13.70;100.00;100723.59;5073138;28;20040;-77
2022/09/09 05:57:49;;;;;;;20.60;19.48;;;;;;;13.67;100.00;100708.00;5077190;28;20024;-76
2022/09/09 06:00:16;;;;;;;20.92;19.80;;;;;;;13.64;100.00;100708.38;5074823;28;20052;-77
2022/09/09 06:02:41;;;;;;;23.15;21.98;;;;;;;13.68;100.00;100714.97;5073835;28;20036;-76
2022/09/09 06:05:08;;;;;;;22.98;21.77;;;;;;;13.68;100.00;100713.16;5072430;28;20028;-77
2022/09/09 06:07:33;;;;;;;19.80;18.90;;;;;;;13.75;100.00;100722.03;5073048;28;20028;-77
2022/09/09 06:09:58;;;;;;;22.73;21.58;;;;;;;13.77;100.00;100722.69;5073896;28;20028;-77
2022/09/09 06:12:25;;;;;;;21.95;20.75;;;;;;;13.77;100.00;100725.34;5072949;28;20055;-77
2022/09/09 06:14:51;;;;;;;21.98;20.75;;;;;;;13.74;100.00;100708.94;5075438;28;20451;-77
2022/09/09 06:17:17;;;;;;;23.60;22.52;;;;;;;13.78;100.00;100727.03;5075731;28;20107;-76
2022/09/09 06:19:42;;;;;;;25.40;23.80;;;;;;;13.78;100.00;100728.81;5059853;28;20047;-76
2022/09/09 06:22:09;;;;;;;27.02;25.65;;;;;;;13.63;100.00;100709.34;5074885;28;20495;-76
2022/09/09 06:24:34;;;;;;;24.90;23.38;;;;;;;13.82;100.00;100727.47;5073322;28;20028;-77
2022/09/09 06:27:00;;;;;;;24.90;23.70;;;;;;;13.82;100.00;100729.31;5059520;28;20024;-76
2022/09/09 06:29:25;;;;;;;29.25;27.73;;;;;;;13.78;100.00;100718.22;5057816;28;20108;-77
2022/09/09 06:31:51;;;;;;;28.85;27.58;;;;;;;13.73;100.00;100702.00;5074676;28;20064;-76
2022/09/09 06:34:16;;;;;;;30.30;28.90;;;;;;;13.80;100.00;100729.47;5057487;28;20082;-77
2022/09/09 06:36:42;;;;;;;30.33;28.80;;;;;;;13.77;100.00;100719.22;5075154;28;20083;-76
2022/09/09 06:39:10;;;;;;;29.30;27.27;;;;;;;13.85;100.00;100737.75;5073057;28;20028;-76
2022/09/09 06:41:36;;;;;;;28.55;27.05;;;;;;;13.91;100.00;100730.91;5070299;28;20036;-76
2022/09/09 06:44:03;;;;;;;28.02;26.73;;;;;;;13.97;100.00;100725.75;5072026;28;20032;-76
2022/09/09 06:46:32;;;;;;;31.02;29.50;;;;;;;14.01;100.00;100736.03;5072952;28;20054;-76
2022/09/09 06:48:59;;;;;;;30.10;28.63;;;;;;;13.98;100.00;100716.78;5056710;28;20340;-76
2022/09/09 06:51:33;;;;;;;35.08;33.50;;;;;;;14.15;100.00;100736.09;5071886;28;20040;-76
2022/09/09 06:54:01;;;;;;;32.65;31.02;;;;;;;14.06;100.00;100734.47;5072896;28;20063;-76
2022/09/09 06:56:35;;;;;;;42.88;40.83;;;;;;;14.19;100.00;100726.75;5072671;28;20491;-76
2022/09/09 06:59:05;;;;;;;33.10;31.58;;;;;;;14.22;100.00;100725.59;5070416;28;20380;-75
2022/09/09 07:01:33;;;;;;;35.85;34.17;;;;;;;14.32;100.00;100734.13;5073558;28;20124;-75
2022/09/09 07:03:59;;;;;;;37.67;35.65;;;;;;;14.22;100.00;100707.03;5077131;28;20396;-75
2022/09/09 07:06:27;;;;;;;38.10;36.33;;;;;;;14.34;100.00;100731.31;5074197;28;20063;-75
2022/09/09 07:08:55;;;;;;;36.85;35.20;;;;;;;14.37;100.00;100731.78;5073380;28;20032;-75
2022/09/09 07:11:21;;;;;;;38.75;36.95;;;;;;;14.31;100.00;100727.19;5072702;28;20036;-75
2022/09/09 07:13:48;;;;;;;40.97;38.90;;;;;;;14.33;100.00;100727.84;5068613;28;20033;-75
2022/09/09 07:16:17;;;;;;;39.92;37.88;;;;;;;14.36;100.00;100730.13;5070830;28;20036;-75
2022/09/09 07:18:43;;;;;;;34.90;33.13;;;;;;;14.51;100.00;100737.31;5075039;28;20057;-76
2022/09/09 07:21:11;;;;;;;36.60;34.92;;;;;;;14.53;100.00;100737.97;5069331;28;20044;-76
2022/09/09 07:23:38;;;;;;;36.10;34.40;;;;;;;14.71;100.00;100735.84;5074495;28;20027;-76
2022/09/09 07:26:10;;;;;;;32.38;30.52;;;;;;;14.93;100.00;100731.47;5070823;28;20016;-76
2022/09/09 07:28:36;;;;;;;33.85;32.15;;;;;;;15.03;100.00;100731.22;5072462;28;20131;-76
2022/09/09 07:31:02;;;;;;;33.33;31.88;;;;;;;15.10;100.00;100718.84;5076011;28;20174;-76
2022/09/09 07:33:33;;;;;;;35.53;33.85;;;;;;;15.23;100.00;100719.03;5072553;28;20502;-77
2022/09/09 07:36:34;;;;;;;32.33;30.83;;;;;;;15.46;100.00;100719.94;5073522;28;20365;-75
2022/09/09 07:39:04;;;;;;;24.52;23.23;;;;;;;15.60;100.00;100705.81;5056133;28;20320;-76
2022/09/09 07:41:34;;;;;;;29.80;28.30;;;;;;;16.25;100.00;100714.72;5069446;28;20024;-76
2022/09/09 07:44:00;;;;;;;18.83;17.73;;;;;;;16.30;100.00;100714.97;5071201;28;20052;-77
2022/09/09 07:46:26;;;;;;;18.17;17.08;;;;;;;16.20;100.00;100702.00;5075509;28;20060;-76
2022/09/09 07:48:53;;;;;;;17.83;17.02;;;;;;;16.37;100.00;100712.38;5068792;28;20115;-76
2022/09/09 07:51:23;;;;;;;19.80;18.70;;;;;;;16.17;100.00;100721.00;5076912;28;20024;-76
2022/09/09 07:53:54;;;;;;;16.33;15.43;;;;;;;16.09;100.00;100709.63;5071279;28;20031;-76
2022/09/09 07:56:23;;;;;;;22.48;21.45;;;;;;;16.22;100.00;100701.78;5076603;28;20336;-77
2022/09/09 07:58:49;;;;;;;30.13;28.92;;;;;;;16.38;100.00;100709.53;5070705;28;20036;-77
2022/09/09 08:01:23;;;;;;;20.23;19.02;;;;;;;16.04;100.00;100716.34;5062279;28;20423;-76
2022/09/09 08:03:54;;;;;;;22.00;20.98;;;;;;;15.93;100.00;100711.53;5069646;28;20047;-76
2022/09/09 08:06:20;;;;;;;29.48;28.02;;;;;;;15.81;100.00;100710.38;5072740;28;20019;-76
2022/09/09 08:08:50;;;;;;;42.22;40.50;;;;;;;16.07;100.00;100709.00;5069525;28;20068;-76
2022/09/09 08:11:15;;;;;;;32.07;30.57;;;;;;;16.01;100.00;100718.59;5072201;28;20032;-76
2022/09/09 08:13:43;;;;;;;33.78;32.28;;;;;;;16.23;100.00;100719.41;5071324;28;20467;-76
2022/09/09 08:16:12;;;;;;;31.42;29.92;;;;;;;16.51;100.00;100718.66;5072886;28;20028;-75
2022/09/09 08:18:37;;;;;;;19.23;18.33;;;;;;;16.43;100.00;100722.25;5074033;28;20115;-76
2022/09/09 08:21:17;;;;;;;21.33;20.30;;;;;;;16.55;100.00;100726.06;5073508;28;20077;-77
2022/09/09 08:23:45;;;;;;;17.75;16.88;;;;;;;16.44;100.00;100727.41;5078160;28;20058;-76
2022/09/09 08:26:15;;;;;;;24.50;23.42;;;;;;;16.47;100.00;100733.38;5068999;28;20012;-75
2022/09/09 08:28:42;;;;;;;16.88;16.00;;;;;;;16.39;100.00;100723.66;5088621;28;20527;-76
2022/09/09 08:31:12;;;;;;;26.85;25.67;;;;;;;16.91;100.00;100718.97;5071141;28;20055;-76
2022/09/09 08:33:38;;;;;;;25.00;23.30;;;;;;;17.33;100.00;100719.84;5067850;28;20057;-76
2022/09/09 08:36:05;;;;;;;11.55;10.95;;;;;;;17.34;100.00;100716.16;5079987;28;20028;-76
2022/09/09 08:38:30;;;;;;;13.15;12.35;;;;;;;17.59;100.00;100717.28;5094052;28;20051;-76
2022/09/09 08:41:26;;;;;;;11.32;10.68;;;;;;;18.01;100.00;100726.09;5062338;28;20523;-77
2022/09/09 08:44:02;;;;;;;9.57;8.98;;;;;;;18.24;97.26;100725.69;5080097;28;20035;-77
2022/09/09 08:46:44;;;;;;;8.30;7.78;;;;;;;18.04;98.64;100741.69;5075095;28;20484;-76
2022/09/09 08:49:35;;;;;;;9.13;8.27;;;;;;;17.95;100.00;100737.56;5077952;28;20680;-76
2022/09/09 08:52:02;;;;;;;8.32;7.63;;;;;;;17.69;100.00;100736.41;5077902;28;20044;-76
2022/09/09 08:54:33;;;;;;;10.68;9.98;;;;;;;18.02;100.00;100735.72;5076188;28;20028;-76
2022/09/09 08:56:58;;;;;;;7.53;7.13;;;;;;;17.96;100.00;100736.53;5071486;28;20031;-76
2022/09/09 08:59:24;;;;;;;7.80;7.25;;;;;;;18.14;98.38;100724.44;5060223;28;20492;-76
2022/09/09 09:02:16;;;;;;;8.23;7.63;;;;;;;18.10;98.78;100729.38;5072017;28;20328;-76
2022/09/09 09:05:04;;;;;;;7.97;7.47;;;;;;;18.13;98.78;100736.16;5076060;28;20036;-76
2022/09/09 09:07:46;;;;;;;8.98;8.38;;;;;;;17.87;100.00;100735.88;5076143;28;20012;-76
2022/09/09 09:10:38;;;;;;;9.85;9.23;;;;;;;18.06;99.63;100739.63;5071500;28;20056;-76
2022/09/09 09:13:13;;;;;;;9.07;8.57;;;;;;;18.23;98.10;100747.28;5077675;28;20018;-76
2022/09/09 09:15:40;;;;;;;8.20;7.60;;;;;;;18.03;98.10;100749.91;5072597;28;20051;-76
2022/09/09 09:18:12;;;;;;;8.65;8.10;;;;;;;18.36;98.02;100749.97;5072781;28;20111;-76
2022/09/09 09:21:10;;;;;;;9.38;8.88;;;;;;;19.43;96.50;100745.38;5074176;28;20028;-76
2022/09/09 09:24:00;;;;;;;6.70;6.20;;;;;;;20.31;88.33;100754.66;5072405;28;20039;-76
2022/09/09 09:26:35;;;;;;;6.70;6.28;;;;;;;18.99;91.24;100756.78;5069051;28;20036;-75
2022/09/09 09:29:10;;;;;;;8.30;7.80;;;;;;;18.90;93.63;100745.47;5070904;28;20023;-76
2022/09/09 09:31:35;;;;;;;8.27;7.45;;;;;;;18.48;94.90;100742.97;5075480;28;20029;-75
2022/09/09 09:34:02;;;;;;;8.18;7.40;;;;;;;18.03;97.06;100733.88;5076378;28;20340;-76
2022/09/09 09:36:46;;;;;;;8.23;7.63;;;;;;;17.70;98.16;100750.56;5058696;28;20028;-76
2022/09/09 09:39:25;;;;;;;10.65;10.05;;;;;;;17.72;100.00;100748.53;5073360;28;20489;-76
2022/09/09 09:41:51;;;;;;;13.23;11.95;;;;;;;17.67;100.00;100754.47;5073058;28;20495;-76
2022/09/09 09:44:31;;;;;;;19.40;18.55;;;;;;;17.50;100.00;100739.00;5078001;28;20028;-76
2022/09/09 09:47:13;;;;;;;30.08;28.83;;;;;;;18.54;100.00;100752.03;5074472;28;20028;-76
2022/09/09 09:49:39;;;;;;;11.60;10.80;;;;;;;19.15;95.60;100752.88;5056785;28;20025;-76
2022/09/09 09:52:06;;;;;;;9.88;9.23;;;;;;;18.85;94.87;100759.47;5073172;28;20519;-76
2022/09/09 09:54:42;;;;;;;9.20;7.68;;;;;;;19.13;95.15;100755.75;5066788;28;20024;-76
2022/09/09 09:57:10;;;;;;;9.43;8.70;;;;;;;19.53;92.91;100761.81;5077844;28;20028;-76
2022/09/09 09:59:39;;;;;;;9.13;7.40;;;;;;;19.61;91.56;100757.25;5076718;28;20059;-76
2022/09/09 10:02:24;;;;;;;11.75;10.82;;;;;;;21.02;89.80;100766.09;5070739;28;20017;-77
2022/09/09 10:05:21;;;;;;;8.85;8.13;;;;;;;21.75;84.08;100763.47;5077878;28;20028;-77
2022/09/09 10:07:59;;;;;;;8.45;7.65;;;;;;;20.84;85.36;100762.34;5074814;28;20273;-76
2022/09/09 10:10:38;;;;;;;9.27;8.65;;;;;;;20.29;87.61;100759.41;5052350;28;20038;-76
2022/09/09 10:13:21;;;;;;;9.43;8.98;;;;;;;20.82;88.25;100753.69;5070374;28;20017;-76
2022/09/09 10:16:18;;;;;;;8.13;7.25;;;;;;;19.92;87.37;100753.84;5068388;28;20473;-76
2022/09/09 10:19:01;;;;;;;8.18;7.57;;;;;;;20.69;85.24;100761.84;5069403;28;20060;-77
2022/09/09 10:22:13;;;;;;;8.63;8.05;;;;;;;21.34;81.81;100774.84;5075950;28;20031;-78
2022/09/09 10:24:58;;;;;;;7.45;6.93;;;;;;;20.74;83.49;100772.72;5071750;28;20558;-78
2022/09/09 10:28:00;;;;;;;7.90;7.30;;;;;;;20.53;86.26;100776.56;5053130;28;20062;-78
2022/09/09 10:30:53;;;;;;;6.22;5.78;;;;;;;20.37;84.62;100767.19;5072587;28;20039;-78
2022/09/09 10:33:32;;;;;;;6.13;5.72;;;;;;;19.81;87.52;100770.59;5079658;28;20047;-77
2022/09/09 10:36:29;;;;;;;6.80;6.40;;;;;;;19.36;89.31;100749.09;5076594;28;20071;-77
2022/09/09 10:39:05;;;;;;;10.90;10.05;;;;;;;19.50;89.37;100774.78;5073768;28;20447;-78
2022/09/09 10:41:42;;;;;;;12.13;11.13;;;;;;;19.67;90.32;100759.09;5069611;28;20408;-79
2022/09/09 10:44:58;;;;;;;16.17;15.27;;;;;;;20.38;88.08;100752.75;5071201;28;20392;-78
2022/09/09 10:47:58;;;;;;;7.60;6.97;;;;;;;20.34;86.54;100763.09;4997494;28;20050;-77
2022/09/09 10:50:50;;;;;;;8.55;8.02;;;;;;;20.17;88.83;100756.59;4998218;28;20125;-78
2022/09/09 10:53:30;;;;;;;7.45;7.07;;;;;;;20.83;84.81;100763.34;4998727;28;20061;-79
2022/09/09 10:56:10;;;;;;;5.40;5.10;;;;;;;20.68;82.82;100741.41;4993493;28;20061;-78
2022/09/09 10:58:48;;;;;;;6.47;5.93;;;;;;;20.58;83.63;100735.72;4989545;28;20474;-79
2022/09/09 11:01:24;;;;;;;6.20;5.85;;;;;;;21.28;80.81;100748.91;4989068;28;20540;-78
2022/09/09 11:04:02;;;;;;;6.57;6.07;;;;;;;20.98;80.95;100751.47;5002524;28;20050;-78
2022/09/09 11:06:42;;;;;;;7.18;6.55;;;;;;;21.68;79.52;100761.88;4999585;28;20540;-77
2022/09/09 11:09:18;;;;;;;6.50;6.00;;;;;;;21.39;78.47;100741.97;4998864;28;20133;-78
2022/09/09 11:11:54;;;;;;;8.00;6.10;;;;;;;21.59;78.23;100765.94;4997637;28;20029;-77
2022/09/09 11:14:41;;;;;;;4.82;4.47;;;;;;;22.20;75.49;100746.09;4993664;28;20624;-78
2022/09/09 11:17:13;;;;;;;6.28;4.90;;;;;;;22.63;74.69;100758.50;4992036;28;20039;-76
2022/09/09 11:19:40;;;;;;;4.63;4.00;;;;;;;21.60;75.77;100765.72;5005745;28;20049;-77
2022/09/09 11:22:21;;;;;;;5.53;5.13;;;;;;;20.78;79.82;100765.88;4998931;28;20040;-77
2022/09/09 11:25:12;;;;;;;6.13;4.72;;;;;;;20.88;80.94;100768.91;5080247;28;20032;-78
2022/09/09 11:28:11;;;;;;;4.97;4.65;;;;;;;22.33;75.69;100729.78;5070274;28;20028;-77
2022/09/09 11:31:03;;;;;;;5.55;2.75;;;;;;;23.71;68.95;100756.28;5074730;28;20028;-77
2022/09/09 11:33:35;;;;;;;3.10;2.40;;;;;;;24.16;68.49;100758.25;5060611;28;20021;-78
2022/09/09 11:36:15;;;;;;;4.03;2.40;;;;;;;24.04;65.50;100762.91;5070369;28;20121;-76
2022/09/09 11:38:51;;;;;;;5.82;1.83;;;;;;;22.57;68.79;100756.72;5077578;28;20683;-78